UHPPRJCN

Guest
Details From UHPP - YELIZOVO
To RJCN - NAKASHIBETSU
Flight Number -
Tags decoded
Created
Modified
Stats Distance 790 nm / 1,463 km
Max Altitude 0 ft / 0 m
Waypoints 4
Social Downloads 0
Likes 0
Share VATSIM

Download

Looking for another format? Having issues loading an existing format? Contact us
Advertisement - Login to hide

Notes

Requested: UHPP NS PTR NSE RJCN Unmatched points: PTR

Route

UHPP NS NSE RJCN

ID Type Via Altitude Latitude Longitude Leg Dist Tot Dist Heading (true) Name
O UHPP APT - 0 ft / 0 m 53.16789˚ 158.45367˚ - 0 nm - YELIZOVO
NS NDB - 0 ft / 0 m 51.50111˚ 156.53917˚ 122 nm 122 nm 216° / 214° OZERNAYA NDB
NSE VOR - 0 ft / 0 m 43.57736˚ 144.95050˚ 667 nm 789 nm 229° / 220° NAKASHIBETSU VOR-DME
O RJCN APT - 0 ft / 0 m 43.57743˚ 144.95979˚ 0 nm 789 nm 89° / 89° NAKASHIBETSU

Altitude Profile

Advertisement - Login to hide

Weather


0- 5 10 15 20 25 30 35+ Temperature / ° C

Clouds and Precipitation
Forecast for 2017-12-13 06:00 UTC. Updated an hour ago

Ground ~20,000 ft ~40,000 ft Winds

UHPP

Details ICAO UHPP (PKC)
Name YELIZOVO
Region Russia
Timezone Asia/Kamchatka (UTC+12.0)
Stats Elevation 131 ft / 40 m (AMSL)
Location 53.167886° 158.453668°
Runways 2
Magnetic Variation 6.678° W

METAR

UHPP 130400Z 27006G12MPS 9999 SCT046 M00/M06 Q0991 R34L/710160 NOSIG RMK QFE739/0986

Decode

TAF

TAF UHPP 130132Z 1303/1409 28007G14MPS 9999 BKN035CB TEMPO 1303/1312 VRB18MPS 2000 SHSN SQ VV006 FM131200 36005G12MPS 9999 BKN030CB

Decode

Departure Runways

ID Width Length Bearing (true) Bearing (mag) Surface Threshold Offset Overrun Length
16L 197 ft / 60 m 11,148 ft / 3,398 m 157.27° 163.95° Concrete 0 ft / 0 m 0 ft / 0 m
16R 197 ft / 60 m 8,228 ft / 2,508 m 157.39° 164.07° Concrete 0 ft / 0 m 0 ft / 0 m
34L 197 ft / 60 m 8,228 ft / 2,508 m 337.40° 344.08° Concrete 0 ft / 0 m 0 ft / 0 m
34R 197 ft / 60 m 11,148 ft / 3,398 m 337.29° 343.97° Concrete 0 ft / 0 m 0 ft / 0 m

RJCN

Details ICAO RJCN (SHB)
Name NAKASHIBETSU
Region Japan
Timezone Asia/Tokyo (UTC+9.0)
Stats Elevation 234 ft / 71 m (AMSL)
Location 43.577427° 144.959791°
Runways 1
Magnetic Variation 8.929° W

METAR

RJCN 130400Z 27015KT 4900 -SHSN FEW008 SCT015 BKN025 M00/M05 Q0994

Decode

TAF

Not found

Destination Runways

ID Width Length Bearing (true) Bearing (mag) Surface Threshold Offset Overrun Length
08 150 ft / 46 m 6,549 ft / 1,996 m 70.96° 79.89° Asphalt 0 ft / 0 m 200 ft / 61 m
26 150 ft / 46 m 6,549 ft / 1,996 m 250.97° 259.90° Asphalt 0 ft / 0 m 200 ft / 61 m

Approach Navaids

Runway Type Ident Frequency Range Bearing (true) Bearing (mag) Slope Elevation
08 Localiser INS 109.35 MHz 18 nm / 33 km 70.97° 79.90° - 234 ft / 71 m (AMSL)
08 Glidescope INS 109.35 MHz 10 nm / 19 km 70.97° 79.89° 3.00° 234 ft / 71 m (AMSL)
08 DME INS 109.35 MHz 18 nm / 33 km - - - 234 ft / 71 m (AMSL)

Popular Alternatives